createdAt,value
2018-01-14T00:02:47.179Z,1017.15
2018-01-14T00:07:42.795Z,1017.01
2018-01-14T00:12:38.418Z,1016.98
2018-01-14T00:17:34.789Z,1016.95
2018-01-14T00:22:31.508Z,1016.96
2018-01-14T00:27:28.076Z,1016.93
2018-01-14T00:32:23.583Z,1016.80
2018-01-14T00:37:23.025Z,1016.71
2018-01-14T00:42:19.759Z,1016.81
2018-01-14T00:47:16.157Z,1016.78
2018-01-14T00:52:12.501Z,1016.71
2018-01-14T00:57:08.041Z,1016.67
2018-01-14T01:02:03.857Z,1016.73
2018-01-14T01:07:00.601Z,1016.66
2018-01-14T01:11:56.948Z,1016.73
2018-01-14T01:16:53.439Z,1016.79
2018-01-14T01:21:49.710Z,1016.76
2018-01-14T01:26:49.628Z,1016.69
2018-01-14T01:31:44.502Z,1016.81
2018-01-14T01:36:41.898Z,1016.75
2018-01-14T01:41:40.457Z,1016.74
2018-01-14T01:46:37.300Z,1016.71
2018-01-14T01:51:35.736Z,1016.70
2018-01-14T01:56:30.720Z,1016.76
2018-01-14T02:01:26.000Z,1016.69
2018-01-14T02:06:24.787Z,1016.69
2018-01-14T02:11:20.789Z,1016.65
2018-01-14T02:16:16.165Z,1016.66
2018-01-14T02:21:12.216Z,1016.62
2018-01-14T02:26:09.002Z,1016.68
2018-01-14T02:31:05.169Z,1016.72
2018-01-14T02:36:02.580Z,1016.60
2018-01-14T02:40:58.611Z,1016.59
2018-01-14T02:45:55.359Z,1016.52
2018-01-14T02:50:50.791Z,1016.57
2018-01-14T02:55:49.293Z,1016.61
2018-01-14T03:00:44.649Z,1016.62
2018-01-14T03:05:40.824Z,1016.66
2018-01-14T03:10:37.097Z,1016.61
2018-01-14T03:15:34.468Z,1016.64
2018-01-14T03:20:29.890Z,1016.59
2018-01-14T03:25:25.447Z,1016.56
2018-01-14T03:30:24.149Z,1016.44
2018-01-14T03:35:19.106Z,1016.40
2018-01-14T03:40:15.775Z,1016.37
2018-01-14T03:45:12.094Z,1016.32
2018-01-14T03:50:11.644Z,1016.28
2018-01-14T03:55:07.547Z,1016.34
2018-01-14T04:00:04.770Z,1016.42
2018-01-14T04:05:01.725Z,1016.30
2018-01-14T04:09:58.320Z,1016.31
2018-01-14T04:14:53.494Z,1016.35
2018-01-14T04:19:49.329Z,1016.38
2018-01-14T04:24:47.025Z,1016.41
2018-01-14T04:29:43.210Z,1016.40
2018-01-14T04:34:39.461Z,1016.40
2018-01-14T04:39:36.642Z,1016.43
2018-01-14T04:44:31.612Z,1016.39
2018-01-14T04:49:28.143Z,1016.29
2018-01-14T04:54:25.746Z,1016.24
2018-01-14T04:59:21.783Z,1016.30
2018-01-14T05:04:19.352Z,1016.36
2018-01-14T05:09:15.555Z,1016.34
2018-01-14T05:14:10.877Z,1016.34
2018-01-14T05:19:07.517Z,1016.31
2018-01-14T05:24:03.798Z,1016.29
2018-01-14T05:29:00.966Z,1016.30
2018-01-14T05:33:57.379Z,1016.25
2018-01-14T05:38:55.115Z,1016.21
2018-01-14T05:43:51.430Z,1016.20
2018-01-14T05:48:48.683Z,1016.23
2018-01-14T05:53:43.734Z,1016.13
2018-01-14T05:58:40.980Z,1016.20
2018-01-14T06:03:37.992Z,1016.28
2018-01-14T06:08:34.032Z,1016.32
2018-01-14T06:13:30.352Z,1016.31
2018-01-14T06:18:26.991Z,1016.25
2018-01-14T06:23:24.215Z,1016.17
2018-01-14T06:28:20.726Z,1016.08
2018-01-14T06:33:17.109Z,1016.15
2018-01-14T06:38:13.533Z,1016.19
2018-01-14T06:43:09.969Z,1016.26
2018-01-14T06:48:06.528Z,1016.15
2018-01-14T06:53:03.832Z,1016.18
2018-01-14T06:57:59.787Z,1016.23
2018-01-14T07:02:56.226Z,1016.27
2018-01-14T07:07:53.465Z,1016.31
2018-01-14T07:12:54.609Z,1016.33
2018-01-14T07:17:51.030Z,1016.44
2018-01-14T07:22:50.383Z,1016.35
2018-01-14T07:27:46.220Z,1016.40
2018-01-14T07:32:42.559Z,1016.32
2018-01-14T07:37:39.122Z,1016.50
2018-01-14T07:42:36.563Z,1016.48
2018-01-14T07:47:32.675Z,1016.52
2018-01-14T07:52:30.329Z,1016.62
2018-01-14T07:57:28.021Z,1016.58
2018-01-14T08:02:25.322Z,1016.65
2018-01-14T08:07:24.600Z,1016.58
2018-01-14T08:12:19.703Z,1016.65
2018-01-14T08:17:16.411Z,1016.65
2018-01-14T08:22:11.839Z,1016.69
2018-01-14T08:27:08.429Z,1016.71
2018-01-14T08:32:05.882Z,1016.64
2018-01-14T08:37:05.056Z,1016.59
2018-01-14T08:42:00.116Z,1016.62
2018-01-14T08:46:56.835Z,1016.63
2018-01-14T08:51:54.092Z,1016.59
2018-01-14T08:56:51.232Z,1016.61
2018-01-14T09:01:47.398Z,1016.61
2018-01-14T09:06:48.743Z,1016.65
2018-01-14T09:11:44.371Z,1016.46
2018-01-14T09:16:41.889Z,1016.52
2018-01-14T09:21:38.198Z,1016.46
2018-01-14T09:26:34.993Z,1016.56
2018-01-14T09:31:31.523Z,1016.63
2018-01-14T09:36:29.283Z,1016.60
2018-01-14T09:41:25.021Z,1016.63
2018-01-14T09:46:22.178Z,1016.58
2018-01-14T09:51:18.724Z,1016.58
2018-01-14T09:56:16.334Z,1016.55
2018-01-14T10:01:11.510Z,1016.57
2018-01-14T10:06:09.541Z,1016.46
2018-01-14T10:11:05.802Z,1016.54
2018-01-14T10:16:02.781Z,1016.48
2018-01-14T10:21:02.156Z,1016.40
2018-01-14T10:25:58.081Z,1016.36
2018-01-14T10:30:54.541Z,1016.31
2018-01-14T10:35:51.248Z,1016.33
2018-01-14T10:40:47.468Z,1016.20
2018-01-14T10:45:45.123Z,1016.25
2018-01-14T10:50:41.472Z,1016.12
2018-01-14T10:55:41.136Z,1016.09
2018-01-14T11:00:37.178Z,1015.82
2018-01-14T11:05:33.634Z,1015.89
2018-01-14T11:10:30.171Z,1016.00
2018-01-14T11:15:25.425Z,1016.00
2018-01-14T11:20:21.311Z,1015.71
2018-01-14T11:25:18.121Z,1015.67
2018-01-14T11:30:13.916Z,1015.72
2018-01-14T11:35:11.654Z,1015.74
2018-01-14T11:40:08.512Z,1015.73
2018-01-14T11:45:04.428Z,1015.78
2018-01-14T11:50:02.393Z,1015.70
2018-01-14T11:55:00.232Z,1015.60
2018-01-14T12:00:01.422Z,1015.53
2018-01-14T12:04:56.974Z,1015.46
2018-01-14T12:09:53.466Z,1015.28
2018-01-14T12:14:51.838Z,1015.40
2018-01-14T12:19:47.923Z,1015.23
2018-01-14T12:24:45.505Z,1015.15
2018-01-14T12:29:41.703Z,1015.28
2018-01-14T12:34:38.806Z,1015.24
2018-01-14T12:39:33.965Z,1015.22
2018-01-14T12:44:29.727Z,1015.16
2018-01-14T12:49:27.300Z,1015.05
2018-01-14T12:54:23.994Z,1015.08
2018-01-14T12:59:20.482Z,1015.06
2018-01-14T13:04:18.168Z,1014.97
2018-01-14T13:09:18.210Z,1014.89
2018-01-14T13:14:13.869Z,1014.87
2018-01-14T13:19:10.033Z,1014.87
2018-01-14T13:24:05.634Z,1014.84
2018-01-14T13:29:03.244Z,1014.84
2018-01-14T13:34:01.027Z,1014.72
2018-01-14T13:38:57.288Z,1014.79
2018-01-14T13:43:53.411Z,1014.82
2018-01-14T13:48:49.030Z,1014.82
2018-01-14T13:53:45.933Z,1014.87
2018-01-14T13:58:42.835Z,1014.75
2018-01-14T14:03:39.350Z,1014.80
2018-01-14T14:08:34.835Z,1014.84
2018-01-14T14:13:32.620Z,1014.84
2018-01-14T14:18:29.567Z,1014.99
2018-01-14T14:23:25.651Z,1014.83
2018-01-14T14:28:22.686Z,1014.98
2018-01-14T14:33:18.786Z,1014.92
2018-01-14T14:38:15.309Z,1014.72
2018-01-14T14:43:12.315Z,1014.71
2018-01-14T14:48:09.314Z,1014.72
2018-01-14T14:53:05.522Z,1014.68
2018-01-14T14:58:02.113Z,1014.71
2018-01-14T15:02:57.675Z,1014.68
2018-01-14T15:07:54.400Z,1014.76
2018-01-14T15:12:50.952Z,1014.65
2018-01-14T15:17:48.121Z,1014.74
2018-01-14T15:22:43.464Z,1014.64
2018-01-14T15:27:39.326Z,1014.76
2018-01-14T15:32:34.751Z,1014.64
2018-01-14T15:37:30.378Z,1014.59
2018-01-14T15:42:26.143Z,1014.66
2018-01-14T15:47:21.747Z,1014.53
2018-01-14T15:52:17.398Z,1014.55
2018-01-14T15:57:13.063Z,1014.60
2018-01-14T16:02:08.607Z,1014.63
2018-01-14T16:07:04.286Z,1014.62
2018-01-14T16:11:59.751Z,1014.60
2018-01-14T16:16:56.225Z,1014.65
2018-01-14T16:21:51.435Z,1014.84
2018-01-14T16:26:48.855Z,1014.75
2018-01-14T16:31:44.132Z,1014.71
2018-01-14T16:36:39.715Z,1014.78
2018-01-14T16:41:35.530Z,1014.65
2018-01-14T16:46:30.957Z,1014.54
2018-01-14T16:51:27.057Z,1014.55
2018-01-14T16:56:22.232Z,1014.54
2018-01-14T17:01:18.768Z,1014.54
2018-01-14T17:06:14.182Z,1014.35
2018-01-14T17:11:10.518Z,1014.38
2018-01-14T17:16:06.819Z,1014.41
2018-01-14T17:21:02.202Z,1014.45
2018-01-14T17:25:58.891Z,1014.37
2018-01-14T17:30:56.375Z,1014.45
2018-01-14T17:35:52.350Z,1014.32
2018-01-14T17:40:48.753Z,1014.36
2018-01-14T17:45:44.267Z,1014.26
2018-01-14T17:50:40.955Z,1014.16
2018-01-14T17:55:38.323Z,1014.06
2018-01-14T18:00:33.716Z,1014.02
2018-01-14T18:05:29.187Z,1014.19
2018-01-14T18:10:24.819Z,1014.21
2018-01-14T18:15:21.181Z,1014.13
2018-01-14T18:20:17.784Z,1014.08
2018-01-14T18:25:13.706Z,1014.22
2018-01-14T18:30:09.149Z,1014.14
2018-01-14T18:35:04.627Z,1014.21
2018-01-14T18:40:01.387Z,1014.29
2018-01-14T18:44:56.509Z,1014.29
2018-01-14T18:49:52.209Z,1014.13
2018-01-14T18:54:49.321Z,1014.14
2018-01-14T18:59:44.778Z,1014.18
2018-01-14T19:04:41.335Z,1014.20
2018-01-14T19:09:37.878Z,1014.19
2018-01-14T19:14:34.019Z,1014.07
2018-01-14T19:19:31.273Z,1014.12
2018-01-14T19:24:26.402Z,1014.09
2018-01-14T19:29:22.254Z,1014.22
2018-01-14T19:34:18.084Z,1014.11
2018-01-14T19:39:13.976Z,1013.99
2018-01-14T19:44:09.152Z,1013.93
2018-01-14T19:49:04.807Z,1013.92
2018-01-14T19:54:01.613Z,1014.09
2018-01-14T19:58:57.189Z,1014.00
2018-01-14T20:03:52.732Z,1013.96
2018-01-14T20:08:49.603Z,1013.97
2018-01-14T20:13:45.869Z,1013.87
2018-01-14T20:18:42.081Z,1013.78
2018-01-14T20:23:38.105Z,1013.90
2018-01-14T20:28:34.800Z,1013.90
2018-01-14T20:33:30.934Z,1013.89
2018-01-14T20:38:27.276Z,1013.73
2018-01-14T20:43:22.705Z,1013.70
2018-01-14T20:48:18.190Z,1013.59
2018-01-14T20:53:14.974Z,1013.49
2018-01-14T20:58:10.922Z,1013.47
2018-01-14T21:03:07.643Z,1013.39
2018-01-14T21:08:04.007Z,1013.33
2018-01-14T21:12:59.363Z,1013.30
2018-01-14T21:17:56.138Z,1013.16
2018-01-14T21:22:51.454Z,1013.19
2018-01-14T21:27:48.029Z,1013.27
2018-01-14T21:32:43.608Z,1013.24
2018-01-14T21:37:39.787Z,1013.16
2018-01-14T21:42:35.228Z,1013.09
2018-01-14T21:47:31.597Z,1013.16
2018-01-14T21:52:27.871Z,1013.18
2018-01-14T21:57:24.328Z,1013.15
2018-01-14T22:02:20.204Z,1013.11
2018-01-14T22:07:15.829Z,1013.06
2018-01-14T22:12:11.079Z,1013.03
2018-01-14T22:17:08.994Z,1013.11
2018-01-14T22:22:04.140Z,1012.99
2018-01-14T22:27:01.091Z,1012.97
2018-01-14T22:31:58.267Z,1012.91
2018-01-14T22:36:54.716Z,1012.86
2018-01-14T22:41:50.044Z,1012.78
2018-01-14T22:46:45.972Z,1012.74
2018-01-14T22:51:42.505Z,1012.68
2018-01-14T22:56:39.657Z,1012.64
2018-01-14T23:01:36.066Z,1012.71
2018-01-14T23:06:32.304Z,1012.56
2018-01-14T23:11:28.655Z,1012.49
2018-01-14T23:16:24.862Z,1012.37
2018-01-14T23:21:20.340Z,1012.31
2018-01-14T23:26:17.182Z,1012.24
2018-01-14T23:31:13.762Z,1012.14
2018-01-14T23:36:11.445Z,1012.18
2018-01-14T23:41:07.142Z,1012.06
2018-01-14T23:46:03.865Z,1011.93
2018-01-14T23:51:01.332Z,1011.86
2018-01-14T23:55:58.127Z,1011.78
